createdAt,value
2019-05-23T00:01:20.690Z,99.90
2019-05-23T00:04:36.104Z,99.90
2019-05-23T00:07:26.880Z,99.90
2019-05-23T00:10:22.974Z,99.90
2019-05-23T00:13:04.326Z,99.90
2019-05-23T00:15:42.090Z,99.90
2019-05-23T00:18:13.417Z,99.90
2019-05-23T00:20:46.042Z,99.90
2019-05-23T00:23:17.662Z,99.90
2019-05-23T00:25:49.485Z,99.90
2019-05-23T00:28:23.499Z,99.90
2019-05-23T00:31:10.180Z,99.90
2019-05-23T00:33:43.486Z,99.90
2019-05-23T00:36:15.764Z,99.90
2019-05-23T00:38:47.104Z,99.90
2019-05-23T00:41:19.126Z,99.90
2019-05-23T00:43:51.346Z,99.90
2019-05-23T00:46:23.117Z,99.90
2019-05-23T00:48:57.334Z,99.90
2019-05-23T00:51:29.884Z,99.90
2019-05-23T00:54:03.681Z,99.90
2019-05-23T00:56:37.231Z,99.90
2019-05-23T00:59:28.012Z,99.90
2019-05-23T01:02:00.473Z,99.90
2019-05-23T01:04:32.346Z,99.90
2019-05-23T01:07:03.651Z,99.90
2019-05-23T01:09:35.355Z,99.90
2019-05-23T01:12:08.002Z,99.90
2019-05-23T01:14:39.591Z,99.90
2019-05-23T01:17:11.591Z,99.90
2019-05-23T01:19:43.620Z,99.90
2019-05-23T01:22:16.926Z,99.90
2019-05-23T01:24:51.869Z,99.90
2019-05-23T01:27:23.333Z,99.90
2019-05-23T01:29:56.442Z,99.90
2019-05-23T01:32:44.669Z,99.90
2019-05-23T01:35:20.927Z,99.90
2019-05-23T01:37:52.790Z,99.90
2019-05-23T01:40:24.435Z,99.90
2019-05-23T01:42:57.178Z,99.90
2019-05-23T01:45:30.503Z,99.90
2019-05-23T01:48:01.595Z,99.90
2019-05-23T01:50:33.353Z,99.90
2019-05-23T01:53:04.755Z,99.90
2019-05-23T01:55:37.131Z,99.90
2019-05-23T01:58:08.639Z,99.90
2019-05-23T02:00:40.346Z,99.90
2019-05-23T02:03:12.764Z,99.90
2019-05-23T02:05:44.679Z,99.90
2019-05-23T02:08:16.610Z,99.90
2019-05-23T02:10:49.140Z,99.90
2019-05-23T02:13:21.366Z,99.90
2019-05-23T02:15:53.769Z,99.90
2019-05-23T02:18:26.449Z,99.90
2019-05-23T02:20:57.898Z,99.90
2019-05-23T02:23:29.083Z,99.90
2019-05-23T02:26:02.023Z,99.90
2019-05-23T02:28:35.347Z,99.90
2019-05-23T02:31:08.158Z,99.90
2019-05-23T02:33:39.481Z,99.90
2019-05-23T02:36:11.686Z,99.90
2019-05-23T02:39:12.753Z,99.90
2019-05-23T02:41:54.939Z,99.90
2019-05-23T02:44:28.238Z,99.90
2019-05-23T02:47:26.358Z,99.90
2019-05-23T02:49:59.878Z,99.90
2019-05-23T02:52:52.706Z,99.90
2019-05-23T02:55:30.524Z,99.90
2019-05-23T02:58:17.688Z,99.90
2019-05-23T03:01:04.398Z,99.90
2019-05-23T03:03:37.056Z,99.90
2019-05-23T03:06:15.015Z,99.90
2019-05-23T03:08:47.917Z,99.90
2019-05-23T03:11:39.395Z,99.90
2019-05-23T03:14:15.795Z,99.90
2019-05-23T03:16:51.016Z,99.90
2019-05-23T03:19:32.524Z,99.90
2019-05-23T03:22:27.958Z,99.90
2019-05-23T03:25:01.656Z,99.90
2019-05-23T03:27:38.019Z,99.90
2019-05-23T03:30:14.916Z,99.90
2019-05-23T03:32:50.142Z,99.90
2019-05-23T03:35:38.474Z,99.90
2019-05-23T03:38:10.964Z,99.90
2019-05-23T03:40:43.130Z,99.90
2019-05-23T03:43:14.325Z,99.90
2019-05-23T03:45:50.552Z,99.90
2019-05-23T03:48:24.001Z,99.90
2019-05-23T03:50:57.955Z,99.90
2019-05-23T03:53:30.887Z,99.90
2019-05-23T03:56:02.138Z,99.90
2019-05-23T03:58:33.280Z,99.90
2019-05-23T04:01:07.847Z,99.90
2019-05-23T04:03:40.623Z,99.90
2019-05-23T04:06:13.585Z,99.90
2019-05-23T04:08:44.903Z,99.90
2019-05-23T04:11:17.131Z,99.90
2019-05-23T04:13:48.550Z,99.90
2019-05-23T04:16:20.363Z,99.90
2019-05-23T04:18:51.849Z,99.90
2019-05-23T04:21:23.783Z,99.90
2019-05-23T04:23:55.772Z,99.90
2019-05-23T04:26:27.807Z,99.90
2019-05-23T04:28:58.913Z,99.90
2019-05-23T04:31:30.400Z,99.90
2019-05-23T04:34:01.514Z,99.90
2019-05-23T04:36:33.907Z,99.90
2019-05-23T04:39:06.668Z,99.90
2019-05-23T04:41:38.656Z,99.90
2019-05-23T04:44:11.473Z,99.90
2019-05-23T04:46:43.428Z,99.90
2019-05-23T04:49:16.166Z,99.90
2019-05-23T04:51:47.416Z,99.90
2019-05-23T04:54:18.992Z,99.90
2019-05-23T04:56:50.651Z,99.90
2019-05-23T04:59:23.245Z,99.90
2019-05-23T05:01:56.641Z,99.90
2019-05-23T05:04:27.941Z,99.90
2019-05-23T05:06:59.323Z,99.90
2019-05-23T05:09:33.216Z,99.90
2019-05-23T05:12:05.021Z,99.90
2019-05-23T05:14:37.311Z,99.90
2019-05-23T05:17:08.743Z,99.90
2019-05-23T05:19:39.891Z,99.90
2019-05-23T05:22:22.671Z,99.90
2019-05-23T05:24:53.957Z,99.90
2019-05-23T05:27:25.891Z,99.90
2019-05-23T05:29:57.239Z,99.90
2019-05-23T05:32:43.425Z,99.90
2019-05-23T05:35:02.301Z,99.90
2019-05-23T05:37:34.072Z,99.90
2019-05-23T05:40:07.293Z,99.90
2019-05-23T05:42:39.466Z,99.90
2019-05-23T05:45:12.049Z,99.90
2019-05-23T05:47:44.575Z,99.90
2019-05-23T05:50:17.327Z,99.90
2019-05-23T05:52:48.821Z,99.90
2019-05-23T05:55:19.973Z,99.90
2019-05-23T05:57:51.765Z,99.90
2019-05-23T06:00:33.791Z,99.90
2019-05-23T06:03:05.908Z,99.90
2019-05-23T06:05:56.641Z,99.90
2019-05-23T06:08:30.041Z,99.90
2019-05-23T06:11:01.667Z,99.90
2019-05-23T06:13:33.153Z,99.90
2019-05-23T06:16:05.245Z,99.90
2019-05-23T06:18:36.608Z,99.90
2019-05-23T06:21:08.009Z,99.90
2019-05-23T06:23:39.408Z,99.90
2019-05-23T06:26:10.478Z,99.90
2019-05-23T06:28:43.333Z,99.90
2019-05-23T06:31:15.141Z,99.90
2019-05-23T06:33:47.282Z,99.90
2019-05-23T06:36:18.364Z,99.90
2019-05-23T06:38:50.785Z,99.90
2019-05-23T06:41:23.545Z,99.90
2019-05-23T06:43:55.736Z,99.90
2019-05-23T06:46:27.084Z,99.90
2019-05-23T06:48:58.541Z,99.90
2019-05-23T06:51:31.209Z,99.90
2019-05-23T06:54:02.708Z,99.90
2019-05-23T06:56:33.964Z,99.90
2019-05-23T06:59:06.088Z,99.90
2019-05-23T07:01:37.365Z,99.90
2019-05-23T07:04:10.018Z,99.90
2019-05-23T07:06:41.160Z,99.90
2019-05-23T07:09:16.200Z,99.90
2019-05-23T07:11:47.760Z,99.90
2019-05-23T07:14:19.417Z,99.90
2019-05-23T07:16:50.797Z,99.90
2019-05-23T07:19:22.705Z,99.90
2019-05-23T07:21:54.149Z,99.90
2019-05-23T07:24:26.736Z,99.90
2019-05-23T07:26:57.798Z,99.90
2019-05-23T07:29:29.155Z,99.90
2019-05-23T07:32:00.288Z,99.90
2019-05-23T07:34:31.841Z,99.90
2019-05-23T07:37:03.020Z,99.90
2019-05-23T07:39:34.338Z,99.90
2019-05-23T07:42:06.226Z,99.90
2019-05-23T07:44:48.011Z,99.90
2019-05-23T07:47:13.423Z,99.90
2019-05-23T07:49:45.182Z,99.90
2019-05-23T07:52:16.774Z,99.90
2019-05-23T07:55:02.919Z,99.90
2019-05-23T07:57:34.575Z,99.90
2019-05-23T08:00:10.332Z,99.90
2019-05-23T08:02:43.430Z,99.90
2019-05-23T08:05:14.766Z,99.90
2019-05-23T08:07:47.471Z,99.90
2019-05-23T08:10:32.464Z,99.90
2019-05-23T08:12:51.787Z,99.90
2019-05-23T08:15:23.759Z,99.90
2019-05-23T08:17:54.947Z,99.90
2019-05-23T08:20:27.283Z,99.90
2019-05-23T08:22:58.542Z,99.90
2019-05-23T08:25:29.994Z,99.90
2019-05-23T08:28:01.163Z,99.90
2019-05-23T08:30:32.663Z,99.90
2019-05-23T08:33:04.885Z,99.90
2019-05-23T08:35:36.814Z,99.90
2019-05-23T08:38:08.756Z,99.90
2019-05-23T08:40:41.035Z,99.90
2019-05-23T08:43:12.624Z,99.90
2019-05-23T08:45:44.968Z,99.90
2019-05-23T08:48:16.409Z,99.90
2019-05-23T08:50:51.236Z,99.90
2019-05-23T08:53:20.862Z,99.90
2019-05-23T08:55:52.507Z,99.90
2019-05-23T08:58:23.847Z,99.90
2019-05-23T09:00:55.553Z,99.90
2019-05-23T09:03:26.919Z,99.90
2019-05-23T09:06:00.006Z,99.90
2019-05-23T09:08:31.187Z,99.90
2019-05-23T09:11:02.537Z,99.90
2019-05-23T09:13:33.662Z,99.90
2019-05-23T09:16:05.381Z,99.90
2019-05-23T09:18:36.626Z,99.90
2019-05-23T09:21:08.148Z,99.90
2019-05-23T09:23:39.940Z,99.90
2019-05-23T09:26:11.681Z,99.90
2019-05-23T09:28:42.870Z,99.90
2019-05-23T09:31:14.790Z,99.90
2019-05-23T09:33:45.999Z,99.90
2019-05-23T09:36:17.397Z,99.90
2019-05-23T09:38:49.077Z,99.90
2019-05-23T09:41:31.642Z,99.90
2019-05-23T09:44:03.064Z,99.90
2019-05-23T09:46:34.453Z,99.90
2019-05-23T09:49:05.701Z,99.90
2019-05-23T09:51:37.217Z,99.90
2019-05-23T09:54:08.551Z,99.90
2019-05-23T09:56:40.697Z,99.90
2019-05-23T09:59:13.044Z,99.90
2019-05-23T10:01:44.424Z,99.90
2019-05-23T10:04:16.072Z,99.90
2019-05-23T10:06:47.637Z,99.90
2019-05-23T10:09:18.776Z,99.90
2019-05-23T10:11:50.819Z,99.90
2019-05-23T10:14:25.329Z,99.90
2019-05-23T10:16:56.697Z,99.90
2019-05-23T10:19:28.151Z,99.90
2019-05-23T10:21:59.638Z,99.90
2019-05-23T10:24:30.831Z,99.90
2019-05-23T10:27:02.151Z,99.90
2019-05-23T10:29:33.251Z,99.90
2019-05-23T10:32:07.104Z,99.90
2019-05-23T10:34:38.216Z,99.90
2019-05-23T10:37:12.218Z,99.90
2019-05-23T10:39:47.273Z,98.80
2019-05-23T10:42:19.413Z,99.90
2019-05-23T10:44:50.612Z,99.00
2019-05-23T10:47:22.113Z,99.90
2019-05-23T10:49:54.389Z,98.80
2019-05-23T10:52:25.664Z,98.80
2019-05-23T10:54:56.839Z,98.20
2019-05-23T10:57:28.229Z,98.00
2019-05-23T10:59:59.407Z,98.60
2019-05-23T11:02:31.125Z,98.60
2019-05-23T11:05:12.018Z,97.00
2019-05-23T11:07:36.108Z,96.80
2019-05-23T11:10:07.753Z,99.20
2019-05-23T11:12:39.388Z,97.40
2019-05-23T11:15:11.016Z,98.70
2019-05-23T11:17:43.700Z,99.30
2019-05-23T11:20:16.836Z,99.00
2019-05-23T11:22:48.187Z,98.60
2019-05-23T11:25:19.913Z,96.90
2019-05-23T11:27:51.405Z,98.70
2019-05-23T11:30:36.632Z,97.40
2019-05-23T11:33:09.897Z,99.00
2019-05-23T11:35:42.136Z,95.00
2019-05-23T11:38:14.076Z,98.40
2019-05-23T11:40:45.136Z,97.10
2019-05-23T11:43:16.801Z,94.40
2019-05-23T11:45:49.974Z,94.70
2019-05-23T11:48:21.338Z,96.60
2019-05-23T11:50:52.426Z,95.70
2019-05-23T11:53:23.736Z,95.40
2019-05-23T11:55:55.003Z,93.50
2019-05-23T11:58:26.627Z,97.10
2019-05-23T12:01:40.928Z,96.20
2019-05-23T12:04:18.076Z,94.50
2019-05-23T12:07:01.195Z,94.10
2019-05-23T12:09:32.842Z,92.40
2019-05-23T12:12:04.036Z,92.90
2019-05-23T12:14:35.621Z,92.60
2019-05-23T12:17:06.774Z,94.90
2019-05-23T12:19:38.052Z,92.60
2019-05-23T12:22:09.311Z,94.20
2019-05-23T12:24:40.836Z,95.00
2019-05-23T12:27:12.537Z,93.50
2019-05-23T12:29:44.393Z,93.70
2019-05-23T12:32:16.028Z,92.20
2019-05-23T12:35:09.641Z,90.20
2019-05-23T12:37:29.666Z,91.30
2019-05-23T12:40:01.124Z,90.20
2019-05-23T12:42:45.757Z,87.70
2019-05-23T12:45:17.807Z,88.80
2019-05-23T12:48:07.054Z,88.50
2019-05-23T12:50:44.308Z,85.80
2019-05-23T12:53:16.387Z,88.40
2019-05-23T12:55:47.548Z,91.30
2019-05-23T12:58:19.393Z,91.00
2019-05-23T13:00:55.040Z,87.60
2019-05-23T13:03:26.927Z,91.40
2019-05-23T13:05:58.168Z,89.00
2019-05-23T13:08:30.309Z,87.70
2019-05-23T13:11:02.471Z,90.60
2019-05-23T13:13:33.854Z,85.60
2019-05-23T13:16:05.095Z,89.30
2019-05-23T13:18:36.433Z,83.90
2019-05-23T13:21:07.511Z,86.20
2019-05-23T13:23:39.132Z,80.00
2019-05-23T13:26:22.099Z,76.30
2019-05-23T13:28:53.612Z,84.00
2019-05-23T13:31:33.751Z,78.90
2019-05-23T13:34:06.137Z,78.00
2019-05-23T13:36:56.589Z,77.20
2019-05-23T13:39:28.407Z,75.00
2019-05-23T13:41:59.683Z,78.80
2019-05-23T13:44:35.092Z,80.20
2019-05-23T13:47:04.096Z,80.80
2019-05-23T13:49:35.358Z,78.10
2019-05-23T13:52:06.418Z,74.50
2019-05-23T13:54:38.030Z,77.10
2019-05-23T13:57:11.286Z,73.80
2019-05-23T13:59:43.323Z,77.40
2019-05-23T14:02:14.831Z,64.30
2019-05-23T14:04:46.498Z,71.10
2019-05-23T14:07:18.897Z,69.10
2019-05-23T14:09:50.392Z,67.00
2019-05-23T14:12:22.140Z,68.70
2019-05-23T14:14:53.523Z,67.60
2019-05-23T14:17:32.812Z,68.50
2019-05-23T14:20:04.603Z,73.30
2019-05-23T14:22:39.790Z,67.90
2019-05-23T14:25:11.426Z,65.00
2019-05-23T14:28:04.223Z,69.00
2019-05-23T14:30:44.538Z,71.50
2019-05-23T14:33:32.322Z,72.10
2019-05-23T14:36:06.502Z,67.60
2019-05-23T14:38:38.176Z,66.20
2019-05-23T14:41:10.115Z,69.20
2019-05-23T14:43:42.638Z,65.70
2019-05-23T14:46:16.305Z,68.90
2019-05-23T14:49:00.763Z,67.00
2019-05-23T14:51:42.031Z,66.00
2019-05-23T14:54:27.354Z,68.40
2019-05-23T14:56:58.965Z,63.40
2019-05-23T14:59:30.929Z,60.00
2019-05-23T15:02:04.526Z,64.80
2019-05-23T15:04:36.228Z,63.20
2019-05-23T15:07:07.654Z,62.80
2019-05-23T15:09:38.823Z,63.60
2019-05-23T15:12:29.178Z,63.00
2019-05-23T15:15:00.219Z,64.40
2019-05-23T15:17:31.579Z,64.50
2019-05-23T15:20:02.616Z,65.20
2019-05-23T15:22:34.061Z,59.30
2019-05-23T15:25:06.011Z,59.90
2019-05-23T15:27:37.688Z,60.50
2019-05-23T15:30:20.886Z,59.40
2019-05-23T15:33:04.170Z,60.00
2019-05-23T15:35:35.664Z,59.00
2019-05-23T15:38:06.965Z,58.30
2019-05-23T15:40:50.116Z,60.10
2019-05-23T15:43:21.736Z,58.30
2019-05-23T15:45:53.003Z,59.40
2019-05-23T15:48:24.431Z,59.80
2019-05-23T15:50:55.537Z,59.10
2019-05-23T15:53:53.951Z,60.80
2019-05-23T15:56:46.846Z,60.70
2019-05-23T15:59:46.138Z,59.70
2019-05-23T16:02:20.556Z,59.00
2019-05-23T16:04:53.729Z,58.10
2019-05-23T16:07:25.959Z,57.40
2019-05-23T16:10:09.260Z,58.90
2019-05-23T16:12:40.860Z,58.00
2019-05-23T16:15:12.544Z,58.70
2019-05-23T16:17:43.689Z,56.30
2019-05-23T16:20:15.267Z,57.10
2019-05-23T16:22:46.441Z,57.90
2019-05-23T16:25:18.558Z,58.40
2019-05-23T16:27:49.597Z,56.60
2019-05-23T16:30:21.356Z,56.70
2019-05-23T16:32:52.557Z,56.20
2019-05-23T16:35:23.968Z,55.80
2019-05-23T16:37:56.180Z,54.10
2019-05-23T16:40:27.884Z,54.40
2019-05-23T16:42:59.357Z,53.10
2019-05-23T16:45:30.991Z,53.60
2019-05-23T16:48:13.852Z,53.10
2019-05-23T16:50:45.094Z,54.80
2019-05-23T16:53:16.667Z,55.10
2019-05-23T16:55:59.529Z,53.30
2019-05-23T16:58:42.815Z,54.00
2019-05-23T17:01:30.625Z,52.90
2019-05-23T17:04:07.064Z,51.30
2019-05-23T17:06:53.785Z,50.50
2019-05-23T17:09:41.927Z,50.30
2019-05-23T17:12:41.237Z,51.20
2019-05-23T17:15:21.160Z,50.20
2019-05-23T17:18:27.340Z,51.00
2019-05-23T17:21:08.520Z,50.40
2019-05-23T17:23:47.102Z,50.80
2019-05-23T17:26:33.187Z,49.90
2019-05-23T17:29:09.236Z,50.30
2019-05-23T17:31:40.331Z,52.30
2019-05-23T17:34:12.000Z,49.10
2019-05-23T17:36:43.116Z,48.70
2019-05-23T17:39:16.861Z,50.10
2019-05-23T17:41:53.584Z,50.80
2019-05-23T17:44:25.070Z,51.70
2019-05-23T17:46:56.447Z,49.70
2019-05-23T17:49:27.959Z,49.00
2019-05-23T17:51:59.256Z,49.50
2019-05-23T17:54:31.512Z,43.60
2019-05-23T17:57:03.821Z,41.30
2019-05-23T17:59:35.217Z,44.40
2019-05-23T18:02:08.920Z,45.00
2019-05-23T18:04:40.482Z,48.00
2019-05-23T18:07:11.612Z,49.10
2019-05-23T18:09:43.532Z,52.50
2019-05-23T18:12:14.748Z,52.50
2019-05-23T18:14:46.590Z,51.90
2019-05-23T18:17:17.742Z,55.00
2019-05-23T18:19:50.142Z,55.40
2019-05-23T18:22:22.199Z,58.20
2019-05-23T18:25:07.792Z,59.90
2019-05-23T18:27:39.995Z,60.70
2019-05-23T18:30:20.698Z,62.40
2019-05-23T18:32:53.119Z,63.80
2019-05-23T18:35:25.562Z,64.30
2019-05-23T18:37:56.729Z,65.80
2019-05-23T18:40:29.172Z,66.40
2019-05-23T18:43:00.684Z,67.40
2019-05-23T18:45:33.542Z,67.60
2019-05-23T18:48:04.938Z,67.00
2019-05-23T18:50:36.738Z,68.60
2019-05-23T18:53:09.020Z,70.10
2019-05-23T18:55:40.807Z,70.20
2019-05-23T18:58:12.008Z,70.60
2019-05-23T19:01:14.882Z,71.80
2019-05-23T19:03:46.212Z,71.90
2019-05-23T19:06:17.611Z,73.50
2019-05-23T19:08:50.385Z,74.00
2019-05-23T19:11:22.454Z,74.80
2019-05-23T19:13:53.894Z,73.30
2019-05-23T19:16:25.864Z,73.30
2019-05-23T19:18:57.413Z,76.20
2019-05-23T19:21:30.414Z,73.50
2019-05-23T19:24:01.568Z,75.90
2019-05-23T19:26:32.889Z,76.90
2019-05-23T19:29:04.292Z,75.50
2019-05-23T19:31:36.622Z,75.50
2019-05-23T19:34:07.905Z,78.50
2019-05-23T19:36:39.542Z,80.10
2019-05-23T19:39:13.478Z,81.20
2019-05-23T19:41:45.238Z,82.00
2019-05-23T19:44:16.456Z,88.80
2019-05-23T19:46:48.002Z,91.70
2019-05-23T19:49:19.822Z,93.10
2019-05-23T19:51:51.196Z,91.40
2019-05-23T19:54:22.600Z,92.10
2019-05-23T19:56:54.032Z,93.30
2019-05-23T19:59:25.109Z,93.90
2019-05-23T20:02:14.534Z,93.60
2019-05-23T20:04:54.357Z,95.60
2019-05-23T20:07:25.865Z,96.50
2019-05-23T20:10:04.697Z,96.40
2019-05-23T20:12:42.476Z,96.10
2019-05-23T20:15:13.690Z,93.70
2019-05-23T20:17:45.720Z,97.00
2019-05-23T20:20:16.826Z,99.30
2019-05-23T20:22:48.633Z,99.80
2019-05-23T20:25:20.604Z,99.20
2019-05-23T20:27:52.162Z,99.10
2019-05-23T20:30:50.145Z,98.60
2019-05-23T20:33:21.434Z,99.10
2019-05-23T20:35:52.714Z,99.90
2019-05-23T20:38:35.960Z,99.90
2019-05-23T20:41:07.224Z,99.90
2019-05-23T20:43:38.582Z,99.90
2019-05-23T20:46:09.922Z,99.90
2019-05-23T20:48:41.281Z,99.90
2019-05-23T20:51:12.739Z,99.90
2019-05-23T20:53:56.883Z,99.90
2019-05-23T20:56:28.144Z,99.90
2019-05-23T20:58:59.466Z,99.90
2019-05-23T21:01:34.121Z,99.90
2019-05-23T21:04:06.301Z,99.90
2019-05-23T21:06:37.505Z,99.90
2019-05-23T21:09:10.299Z,99.90
2019-05-23T21:11:41.362Z,99.90
2019-05-23T21:14:12.766Z,99.90
2019-05-23T21:16:44.063Z,99.90
2019-05-23T21:19:15.645Z,99.90
2019-05-23T21:21:48.374Z,99.90
2019-05-23T21:24:20.080Z,99.90
2019-05-23T21:26:51.137Z,99.90
2019-05-23T21:29:22.963Z,99.90
2019-05-23T21:31:54.107Z,99.90
2019-05-23T21:34:25.438Z,99.90
2019-05-23T21:36:56.606Z,99.90
2019-05-23T21:39:28.573Z,99.90
2019-05-23T21:41:59.706Z,99.90
2019-05-23T21:44:31.144Z,99.90
2019-05-23T21:47:02.310Z,99.90
2019-05-23T21:49:33.734Z,99.90
2019-05-23T21:52:05.553Z,99.90
2019-05-23T21:54:36.888Z,99.90
2019-05-23T21:57:08.911Z,99.90
2019-05-23T21:59:52.105Z,99.90
2019-05-23T22:02:32.806Z,99.90
2019-05-23T22:05:10.610Z,99.90
2019-05-23T22:07:41.944Z,99.90
2019-05-23T22:10:13.340Z,99.90
2019-05-23T22:12:44.410Z,99.90
2019-05-23T22:15:20.202Z,99.90
2019-05-23T22:17:51.349Z,99.90
2019-05-23T22:20:22.798Z,99.90
2019-05-23T22:22:53.907Z,99.90
2019-05-23T22:25:33.696Z,99.90
2019-05-23T22:28:04.741Z,99.90
2019-05-23T22:30:36.107Z,99.90
2019-05-23T22:33:07.797Z,99.90
2019-05-23T22:35:39.196Z,99.90
2019-05-23T22:38:10.408Z,99.90
2019-05-23T22:40:41.657Z,99.90
2019-05-23T22:43:21.045Z,99.90
2019-05-23T22:45:45.870Z,99.90
2019-05-23T22:48:16.924Z,99.90
2019-05-23T22:50:48.323Z,99.90
2019-05-23T22:53:19.625Z,99.90
2019-05-23T22:55:51.442Z,99.90
2019-05-23T22:58:22.564Z,99.90
2019-05-23T23:00:53.746Z,99.90
2019-05-23T23:03:25.130Z,99.90
2019-05-23T23:05:56.520Z,99.90
2019-05-23T23:08:28.359Z,99.90
2019-05-23T23:11:16.956Z,99.90
2019-05-23T23:13:49.210Z,99.90
2019-05-23T23:16:20.457Z,99.90
2019-05-23T23:18:51.848Z,99.90
2019-05-23T23:21:23.148Z,99.90
2019-05-23T23:23:54.265Z,99.90
2019-05-23T23:26:25.386Z,99.90
2019-05-23T23:28:56.445Z,99.90
2019-05-23T23:31:27.840Z,99.90
2019-05-23T23:33:58.939Z,99.90
2019-05-23T23:36:30.734Z,99.90
2019-05-23T23:39:01.800Z,99.90
2019-05-23T23:41:33.944Z,99.90
2019-05-23T23:44:08.645Z,99.90
2019-05-23T23:46:57.952Z,99.90
2019-05-23T23:49:46.620Z,99.90
2019-05-23T23:52:54.218Z,99.90
2019-05-23T23:55:43.354Z,99.90
2019-05-23T23:58:13.901Z,99.90
